ADDS METAR Data INFO
IDs: Format: Raw Decoded Include TAF

Data at: 1903 UTC 23 Apr 2018

KY19 231835Z AUTO 04016G21KT 10SM CLR 17/M00 A3019 RMK AO2 PWINO
KY19 231815Z AUTO 05011G19KT 10SM CLR 17/M01 A3020 RMK AO2 PWINO
KY19 231755Z AUTO 05014G19KT 10SM CLR 16/M01 A3021 RMK AO2 PWINO
KY19 231615Z AUTO 05015KT 10SM CLR 15/M02 A3020 RMK AO2 PWINO
KY19 231555Z AUTO 07015G21KT 10SM CLR 15/M02 A3020 RMK AO2 PWINO
KY19 231535Z AUTO 04016KT 10SM CLR 14/M01 A3020 RMK AO2 PWINO
KY19 222155Z AUTO 20008KT 10SM BKN060 20/05 A3007 RMK AO2 PWINO
KY19 222135Z AUTO 28007G18KT 10SM FEW060 19/05 A3008 RMK AO2 PWINO
KY19 222035Z AUTO 21010KT 10SM CLR 19/05 A3009 RMK AO2 PWINO
KY19 221955Z AUTO 22007G13KT 180V240 10SM CLR 19/05 A3011 RMK AO2 PWINO
KY19 221855Z AUTO 24010KT 10SM CLR 17/05 A3012 RMK AO2 PWINO